Time;durP1;ratioP1;P1;durP2;ratioP2;P2;SDS_P1;SDS_P2;PMS_P1;PMS_P2;Temp;Humidity;BMP_temperature;BMP_pressure;BME280_temperature;BME280_humidity;BME280_pressure;Samples;Min_cycle;Max_cycle;Signal;HPM_P1;HPM_P2
2024/01/26 00:01:28;;;;;;;;;;;6.70;99.90;;;;;;5040222;28;20004;-50
2024/01/26 00:03:54;;;;;;;;;;;6.60;99.90;;;;;;5034609;28;20039;-51
2024/01/26 00:06:19;;;;;;;;;;;6.60;99.90;;;;;;5050309;28;20372;-50
2024/01/26 00:08:45;;;;;;;;;;;6.60;99.90;;;;;;5066460;28;20023;-50
2024/01/26 00:11:17;;;;;;;;;;;6.60;99.90;;;;;;5048508;28;19951;-48
2024/01/26 00:13:42;;;;;;;;;;;6.60;99.90;;;;;;5048791;28;19995;-49
2024/01/26 00:16:08;;;;;;;;;;;6.70;99.90;;;;;;5059356;28;20046;-48
2024/01/26 00:18:34;;;;;;;;;;;6.60;99.90;;;;;;5053035;28;20702;-48
2024/01/26 00:20:59;;;;;;;;;;;6.60;99.90;;;;;;5041146;28;20007;-48
2024/01/26 00:23:25;;;;;;;;;;;6.70;99.90;;;;;;5063370;28;20114;-49
2024/01/26 00:25:50;;;;;;;;;;;6.60;99.90;;;;;;5062336;28;19921;-49
2024/01/26 00:28:16;;;;;;;;;;;6.60;99.90;;;;;;5064548;28;19921;-48
2024/01/26 00:30:41;;;;;;;;;;;6.60;99.90;;;;;;5053681;28;20070;-51
2024/01/26 00:33:07;;;;;;;;;;;6.70;99.90;;;;;;5071460;28;19935;-50
2024/01/26 00:35:32;;;;;;;;;;;6.60;99.90;;;;;;5062421;28;19909;-55
2024/01/26 00:37:58;;;;;;;;;;;6.60;99.90;;;;;;5071240;28;20299;-51
2024/01/26 00:40:23;;;;;;;;;;;6.60;99.90;;;;;;5055485;28;20051;-48
2024/01/26 00:42:49;;;;;;;;;;;6.70;99.90;;;;;;5037360;28;20001;-52
2024/01/26 00:45:14;;;;;;;;;;;6.60;99.90;;;;;;5053939;28;19917;-48
2024/01/26 00:47:40;;;;;;;;;;;6.70;99.90;;;;;;5060818;28;19919;-50
2024/01/26 00:50:05;;;;;;;;;;;6.60;99.90;;;;;;5053991;28;20377;-51
2024/01/26 00:52:31;;;;;;;;;;;6.70;99.90;;;;;;5064728;28;19923;-51
2024/01/26 00:54:56;;;;;;;;;;;6.70;99.90;;;;;;5038442;28;20308;-49
2024/01/26 00:57:22;;;;;;;;;;;6.70;99.90;;;;;;5046790;28;19917;-54
2024/01/26 00:59:48;;;;;;;;;;;6.70;99.90;;;;;;5058665;28;19913;-49
2024/01/26 01:02:14;;;;;;;;;;;6.70;99.90;;;;;;5036184;28;19913;-51
2024/01/26 01:04:39;;;;;;;;;;;6.70;99.90;;;;;;5042676;28;19917;-49
2024/01/26 01:07:05;;;;;;;;;;;6.70;99.90;;;;;;5070041;28;19923;-54
2024/01/26 01:09:31;;;;;;;;;;;6.70;99.90;;;;;;5036364;28;20440;-49
2024/01/26 01:11:57;;;;;;;;;;;6.70;99.90;;;;;;5043219;28;19970;-54
2024/01/26 01:14:23;;;;;;;;;;;6.70;99.90;;;;;;5050149;28;20388;-55
2024/01/26 01:16:50;;;;;;;;;;;6.70;99.90;;;;;;5045178;28;19966;-49
2024/01/26 01:19:15;;;;;;;;;;;6.70;99.90;;;;;;5057027;28;19932;-52
2024/01/26 01:21:41;;;;;;;;;;;6.70;99.90;;;;;;5065436;28;19913;-50
2024/01/26 01:24:06;;;;;;;;;;;6.70;99.90;;;;;;5047698;28;20546;-52
2024/01/26 01:26:32;;;;;;;;;;;6.70;99.90;;;;;;5052835;28;20360;-48
2024/01/26 01:28:57;;;;;;;;;;;6.70;99.90;;;;;;5037832;28;19917;-50
2024/01/26 01:31:23;;;;;;;;;;;6.70;99.90;;;;;;5062861;28;19920;-49
2024/01/26 01:33:48;;;;;;;;;;;6.70;99.90;;;;;;5037236;28;19916;-48
2024/01/26 01:36:14;;;;;;;;;;;6.80;99.90;;;;;;5063164;28;20007;-49
2024/01/26 01:38:39;;;;;;;;;;;6.70;99.90;;;;;;5056616;28;19916;-54
2024/01/26 01:41:05;;;;;;;;;;;6.70;99.90;;;;;;5057098;28;19912;-48
2024/01/26 01:43:30;;;;;;;;;;;6.70;99.90;;;;;;5061751;28;19927;-49
2024/01/26 01:45:56;;;;;;;;;;;6.80;99.90;;;;;;5061473;28;20392;-52
2024/01/26 01:48:22;;;;;;;;;;;6.80;99.90;;;;;;5061770;28;19913;-53
2024/01/26 01:50:48;;;;;;;;;;;6.80;99.90;;;;;;5045171;28;19923;-50
2024/01/26 01:53:14;;;;;;;;;;;6.70;99.90;;;;;;5053511;28;19917;-48
2024/01/26 01:55:41;;;;;;;;;;;6.80;99.90;;;;;;5026595;28;19928;-50
2024/01/26 01:58:07;;;;;;;;;;;6.70;99.90;;;;;;5064906;28;19919;-54
2024/01/26 02:00:32;;;;;;;;;;;6.70;99.90;;;;;;5058193;28;19909;-51
2024/01/26 02:02:58;;;;;;;;;;;6.60;99.90;;;;;;5045864;28;20558;-49
2024/01/26 02:05:23;;;;;;;;;;;6.70;99.90;;;;;;5036947;28;20003;-49
2024/01/26 02:07:49;;;;;;;;;;;6.70;99.90;;;;;;5038032;28;19921;-48
2024/01/26 02:10:15;;;;;;;;;;;6.70;99.90;;;;;;5046345;28;19913;-53
2024/01/26 02:12:41;;;;;;;;;;;6.70;99.90;;;;;;5041856;28;20281;-50
2024/01/26 02:15:08;;;;;;;;;;;6.70;99.90;;;;;;5059053;28;19924;-54
2024/01/26 02:17:34;;;;;;;;;;;6.80;99.90;;;;;;5038450;28;19920;-49
2024/01/26 02:19:59;;;;;;;;;;;6.70;99.90;;;;;;5053821;28;19971;-52
2024/01/26 02:22:25;;;;;;;;;;;6.80;99.90;;;;;;5054305;28;19919;-51
2024/01/26 02:24:51;;;;;;;;;;;6.80;99.90;;;;;;5054314;28;20024;-52
2024/01/26 02:27:18;;;;;;;;;;;6.80;99.90;;;;;;5052571;28;20276;-52
2024/01/26 02:29:43;;;;;;;;;;;6.80;99.90;;;;;;5060184;28;19912;-50
2024/01/26 02:32:09;;;;;;;;;;;6.70;99.90;;;;;;5023851;28;19925;-48
2024/01/26 02:34:34;;;;;;;;;;;6.70;99.90;;;;;;5039929;28;19920;-54
2024/01/26 02:37:00;;;;;;;;;;;6.70;99.90;;;;;;5068983;28;19931;-49
2024/01/26 02:39:26;;;;;;;;;;;6.70;99.90;;;;;;5069431;28;19932;-48
2024/01/26 02:41:53;;;;;;;;;;;6.80;99.90;;;;;;5049372;28;20304;-50
2024/01/26 02:44:18;;;;;;;;;;;6.80;99.90;;;;;;5048333;28;19985;-52
2024/01/26 02:46:45;;;;;;;;;;;6.80;99.90;;;;;;5068802;28;20406;-50
2024/01/26 02:49:11;;;;;;;;;;;6.90;99.90;;;;;;5063608;28;19909;-49
2024/01/26 02:51:36;;;;;;;;;;;6.90;99.90;;;;;;5032911;28;20412;-53
2024/01/26 02:54:02;;;;;;;;;;;6.90;99.90;;;;;;5045809;28;19913;-50
2024/01/26 02:56:28;;;;;;;;;;;6.90;99.90;;;;;;5043863;28;19917;-53
2024/01/26 02:58:53;;;;;;;;;;;6.90;99.90;;;;;;5065914;28;19924;-49
2024/01/26 03:01:19;;;;;;;;;;;6.90;99.90;;;;;;5056427;28;20073;-51
2024/01/26 03:03:44;;;;;;;;;;;6.90;99.90;;;;;;5034160;28;19917;-50
2024/01/26 03:06:11;;;;;;;;;;;7.00;99.90;;;;;;5034648;28;19916;-53
2024/01/26 03:08:40;;;;;;;;;;;7.00;99.90;;;;;;5062229;28;19920;-53
2024/01/26 03:11:05;;;;;;;;;;;7.00;99.90;;;;;;5034646;28;19948;-52
2024/01/26 03:13:31;;;;;;;;;;;7.00;99.90;;;;;;5056953;28;19986;-56
2024/01/26 03:15:57;;;;;;;;;;;6.90;99.90;;;;;;5045817;28;19925;-49
2024/01/26 03:18:22;;;;;;;;;;;7.00;99.90;;;;;;5036812;28;20384;-51
2024/01/26 03:20:48;;;;;;;;;;;6.90;99.90;;;;;;5045836;28;19928;-52
2024/01/26 03:23:14;;;;;;;;;;;7.00;99.90;;;;;;5064513;28;19920;-55
2024/01/26 03:25:39;;;;;;;;;;;7.00;99.90;;;;;;5060961;28;19940;-50
2024/01/26 03:28:06;;;;;;;;;;;6.90;99.90;;;;;;5054247;28;20289;-50
2024/01/26 03:30:32;;;;;;;;;;;6.90;99.90;;;;;;5052592;28;20399;-55
2024/01/26 03:32:57;;;;;;;;;;;6.90;99.90;;;;;;5060912;28;19913;-51
2024/01/26 03:35:23;;;;;;;;;;;6.90;99.90;;;;;;5067723;28;19920;-50
2024/01/26 03:37:48;;;;;;;;;;;6.90;99.90;;;;;;5058579;28;19925;-51
2024/01/26 03:40:13;;;;;;;;;;;6.80;99.90;;;;;;5053342;28;20019;-52
2024/01/26 03:42:40;;;;;;;;;;;6.90;99.90;;;;;;5055634;28;19927;-50
2024/01/26 03:45:06;;;;;;;;;;;6.80;99.90;;;;;;5072396;28;19921;-48
2024/01/26 03:47:31;;;;;;;;;;;6.90;99.90;;;;;;5046695;28;19925;-52
2024/01/26 03:49:57;;;;;;;;;;;7.00;99.90;;;;;;5064059;28;19959;-52
2024/01/26 03:52:22;;;;;;;;;;;6.90;99.90;;;;;;5057472;28;20281;-54
2024/01/26 03:54:47;;;;;;;;;;;6.90;99.90;;;;;;5067878;28;20257;-49
2024/01/26 03:57:13;;;;;;;;;;;6.90;99.90;;;;;;5049473;28;19932;-51
2024/01/26 03:59:38;;;;;;;;;;;6.90;99.90;;;;;;5054134;28;19924;-52
2024/01/26 04:02:04;;;;;;;;;;;6.90;99.90;;;;;;5065356;28;19969;-53
2024/01/26 04:04:29;;;;;;;;;;;6.90;99.90;;;;;;5071445;28;20411;-52
2024/01/26 04:06:55;;;;;;;;;;;6.90;99.90;;;;;;5039734;28;19913;-52
2024/01/26 04:09:20;;;;;;;;;;;7.00;99.90;;;;;;5031844;28;19956;-53
2024/01/26 04:11:46;;;;;;;;;;;7.10;99.90;;;;;;5042552;28;19953;-48
2024/01/26 04:14:11;;;;;;;;;;;7.10;99.90;;;;;;5038071;28;20289;-49
2024/01/26 04:16:36;;;;;;;;;;;7.20;99.90;;;;;;5040471;28;19974;-50
2024/01/26 04:19:02;;;;;;;;;;;7.20;99.90;;;;;;5043611;28;19916;-53
2024/01/26 04:21:28;;;;;;;;;;;7.20;99.90;;;;;;5060230;28;20326;-52
2024/01/26 04:23:53;;;;;;;;;;;7.20;99.90;;;;;;5035336;28;20352;-54
2024/01/26 04:26:19;;;;;;;;;;;7.20;99.90;;;;;;5052485;28;19921;-52
2024/01/26 04:28:45;;;;;;;;;;;7.30;99.90;;;;;;5060476;28;19919;-52
2024/01/26 04:31:10;;;;;;;;;;;7.20;99.90;;;;;;5062988;28;19974;-53
2024/01/26 04:33:36;;;;;;;;;;;7.30;99.90;;;;;;5061042;28;19940;-52
2024/01/26 04:36:01;;;;;;;;;;;7.30;99.90;;;;;;5047362;28;19952;-52
2024/01/26 04:38:28;;;;;;;;;;;7.30;99.90;;;;;;5063894;28;19912;-52
2024/01/26 04:40:53;;;;;;;;;;;7.40;99.90;;;;;;5062787;28;19912;-48
2024/01/26 04:43:19;;;;;;;;;;;7.40;99.90;;;;;;5055955;28;19987;-52
2024/01/26 04:45:45;;;;;;;;;;;7.40;99.90;;;;;;5048587;28;19920;-49
2024/01/26 04:48:11;;;;;;;;;;;7.50;99.90;;;;;;5053409;28;19923;-52
2024/01/26 04:50:36;;;;;;;;;;;7.50;99.90;;;;;;5035478;28;19920;-50
2024/01/26 04:53:02;;;;;;;;;;;7.40;99.90;;;;;;5045556;28;19909;-50
2024/01/26 04:55:30;;;;;;;;;;;7.40;99.90;;;;;;5054620;28;19912;-50
2024/01/26 04:57:56;;;;;;;;;;;7.40;99.90;;;;;;5039387;28;19917;-49
2024/01/26 05:00:21;;;;;;;;;;;7.50;99.90;;;;;;5046377;28;19919;-52
2024/01/26 05:02:47;;;;;;;;;;;7.50;99.90;;;;;;5048440;28;19963;-52
2024/01/26 05:05:13;;;;;;;;;;;7.50;99.90;;;;;;5058977;28;19924;-50
2024/01/26 05:07:38;;;;;;;;;;;7.40;99.90;;;;;;5052430;28;19919;-49
2024/01/26 05:10:05;;;;;;;;;;;7.50;99.90;;;;;;5054136;28;20012;-49
2024/01/26 05:12:31;;;;;;;;;;;7.50;99.90;;;;;;5030849;28;19938;-52
2024/01/26 05:14:56;;;;;;;;;;;7.60;99.90;;;;;;5054694;28;19916;-49
2024/01/26 05:17:21;;;;;;;;;;;7.50;99.90;;;;;;5054793;28;19913;-49
2024/01/26 05:19:47;;;;;;;;;;;7.60;99.90;;;;;;5069443;28;19917;-50
2024/01/26 05:22:12;;;;;;;;;;;7.60;99.90;;;;;;5064583;28;20338;-49
2024/01/26 05:24:38;;;;;;;;;;;7.60;99.90;;;;;;5051260;28;20388;-52
2024/01/26 05:27:03;;;;;;;;;;;7.60;99.90;;;;;;5044129;28;19985;-54
2024/01/26 05:29:29;;;;;;;;;;;7.60;99.90;;;;;;5055087;28;19912;-49
2024/01/26 05:31:54;;;;;;;;;;;7.60;99.90;;;;;;5042051;28;20047;-49
2024/01/26 05:34:20;;;;;;;;;;;7.60;99.90;;;;;;5035284;28;20774;-51
2024/01/26 05:36:45;;;;;;;;;;;7.60;99.90;;;;;;5062726;28;19912;-53
2024/01/26 05:39:11;;;;;;;;;;;7.60;99.90;;;;;;5047069;28;19917;-50
2024/01/26 05:41:37;;;;;;;;;;;7.60;99.90;;;;;;5030572;28;19970;-50
2024/01/26 05:44:03;;;;;;;;;;;7.60;99.90;;;;;;5055356;28;19920;-50
2024/01/26 05:46:28;;;;;;;;;;;7.60;99.90;;;;;;5061454;28;19917;-50
2024/01/26 05:48:55;;;;;;;;;;;7.60;99.90;;;;;;5034080;28;19912;-52
2024/01/26 05:51:20;;;;;;;;;;;7.60;99.90;;;;;;5057671;28;19908;-52
2024/01/26 05:53:46;;;;;;;;;;;7.60;99.90;;;;;;5057745;28;20383;-52
2024/01/26 05:56:11;;;;;;;;;;;7.50;99.90;;;;;;5018286;28;19920;-52
2024/01/26 05:58:37;;;;;;;;;;;7.50;99.90;;;;;;5066845;28;19916;-51
2024/01/26 06:01:02;;;;;;;;;;;7.50;99.90;;;;;;5058356;28;20469;-52
2024/01/26 06:03:28;;;;;;;;;;;7.50;99.90;;;;;;5066075;28;19955;-49
2024/01/26 06:05:53;;;;;;;;;;;7.40;99.90;;;;;;5046196;28;19921;-52
2024/01/26 06:08:19;;;;;;;;;;;7.30;99.90;;;;;;5054306;28;19924;-51
2024/01/26 06:10:44;;;;;;;;;;;7.30;99.90;;;;;;5049869;28;19960;-51
2024/01/26 06:13:10;;;;;;;;;;;7.30;99.90;;;;;;5052711;28;20296;-49
2024/01/26 06:15:35;;;;;;;;;;;7.30;99.90;;;;;;5037505;28;19967;-50
2024/01/26 06:18:01;;;;;;;;;;;7.30;99.90;;;;;;5054796;28;20364;-50
2024/01/26 06:20:31;;;;;;;;;;;7.30;99.90;;;;;;5053569;28;19923;-50
2024/01/26 06:23:00;;;;;;;;;;;7.40;99.90;;;;;;5049852;28;20526;-53
2024/01/26 06:25:25;;;;;;;;;;;7.30;99.90;;;;;;5065024;28;19916;-50
2024/01/26 06:27:53;;;;;;;;;;;7.40;99.90;;;;;;5047468;28;20356;-51
2024/01/26 06:30:19;;;;;;;;;;;7.30;99.90;;;;;;5037998;28;19909;-49
2024/01/26 06:32:44;;;;;;;;;;;7.40;99.90;;;;;;5049967;28;19925;-49
2024/01/26 06:35:10;;;;;;;;;;;7.40;99.90;;;;;;5040647;28;20034;-50
2024/01/26 06:37:36;;;;;;;;;;;7.40;99.90;;;;;;5054261;28;19912;-49
2024/01/26 06:40:01;;;;;;;;;;;7.50;99.90;;;;;;5048054;28;20277;-51
2024/01/26 06:42:27;;;;;;;;;;;7.50;99.90;;;;;;5047018;28;20327;-52
2024/01/26 06:44:53;;;;;;;;;;;7.50;99.90;;;;;;5043603;28;19920;-49
2024/01/26 06:47:19;;;;;;;;;;;7.50;99.90;;;;;;5052323;28;19942;-49
2024/01/26 06:49:44;;;;;;;;;;;7.60;99.90;;;;;;5059355;28;19917;-51
2024/01/26 06:52:10;;;;;;;;;;;7.70;99.90;;;;;;5057887;28;19997;-52
2024/01/26 06:54:37;;;;;;;;;;;7.70;99.90;;;;;;5067927;28;19920;-50
2024/01/26 06:57:04;;;;;;;;;;;7.70;99.90;;;;;;5055671;28;19917;-53
2024/01/26 06:59:29;;;;;;;;;;;7.80;99.90;;;;;;5039891;28;19916;-51
2024/01/26 07:01:55;;;;;;;;;;;7.80;99.90;;;;;;5061202;28;19946;-49
2024/01/26 07:04:20;;;;;;;;;;;7.90;99.90;;;;;;5051713;28;20372;-49
2024/01/26 07:06:45;;;;;;;;;;;8.00;99.90;;;;;;5055800;28;19917;-51
2024/01/26 07:09:11;;;;;;;;;;;7.90;99.90;;;;;;5050881;28;19967;-49
2024/01/26 07:11:38;;;;;;;;;;;8.00;99.90;;;;;;5052160;28;19920;-50
2024/01/26 07:14:06;;;;;;;;;;;8.20;99.90;;;;;;5045394;28;19921;-51
2024/01/26 07:16:32;;;;;;;;;;;8.20;99.90;;;;;;5043771;28;19919;-53
2024/01/26 07:18:57;;;;;;;;;;;8.10;99.90;;;;;;5044633;28;19913;-52
2024/01/26 07:21:23;;;;;;;;;;;8.10;99.90;;;;;;5044528;28;19963;-48
2024/01/26 07:23:49;;;;;;;;;;;8.20;99.90;;;;;;5046923;28;20409;-49
2024/01/26 07:26:21;;;;;;;;;;;8.30;99.90;;;;;;5066081;28;20228;-48
2024/01/26 07:28:47;;;;;;;;;;;8.30;99.90;;;;;;5071157;28;20438;-51
2024/01/26 07:31:12;;;;;;;;;;;8.30;99.90;;;;;;5072050;28;19912;-51
2024/01/26 07:33:37;;;;;;;;;;;8.20;99.90;;;;;;5053049;28;19939;-55
2024/01/26 07:36:03;;;;;;;;;;;8.40;99.90;;;;;;5056775;28;20016;-48
2024/01/26 07:38:29;;;;;;;;;;;8.40;99.90;;;;;;5056161;28;19963;-48
2024/01/26 07:40:54;;;;;;;;;;;8.50;99.90;;;;;;5056212;28;20017;-50
2024/01/26 07:43:20;;;;;;;;;;;8.60;99.90;;;;;;5062022;28;19928;-52
2024/01/26 07:45:45;;;;;;;;;;;8.60;99.90;;;;;;5037519;28;19963;-49
2024/01/26 07:48:12;;;;;;;;;;;8.70;99.90;;;;;;5071391;28;19926;-50
2024/01/26 07:50:39;;;;;;;;;;;8.70;99.90;;;;;;5046914;28;19913;-51
2024/01/26 07:53:04;;;;;;;;;;;8.80;99.90;;;;;;5054481;28;19913;-50
2024/01/26 07:55:30;;;;;;;;;;;8.80;99.90;;;;;;5038932;28;19920;-48
2024/01/26 07:57:58;;;;;;;;;;;8.80;99.90;;;;;;5054536;28;20371;-50
2024/01/26 08:00:23;;;;;;;;;;;8.80;99.90;;;;;;5070992;28;19997;-49
2024/01/26 08:02:49;;;;;;;;;;;8.90;99.90;;;;;;5057871;28;20034;-49
2024/01/26 08:05:14;;;;;;;;;;;8.90;99.90;;;;;;5050277;28;19928;-51
2024/01/26 08:07:40;;;;;;;;;;;8.90;99.90;;;;;;5068623;28;20432;-49
2024/01/26 08:10:06;;;;;;;;;;;9.00;99.90;;;;;;5036016;28;19916;-51
2024/01/26 08:12:31;;;;;;;;;;;9.00;99.90;;;;;;5016958;28;19917;-50
2024/01/26 08:14:57;;;;;;;;;;;9.00;99.90;;;;;;5034605;28;19928;-53
2024/01/26 08:17:22;;;;;;;;;;;9.10;99.90;;;;;;5035361;28;20400;-53
2024/01/26 08:19:48;;;;;;;;;;;9.10;99.90;;;;;;5035418;28;20391;-50
2024/01/26 08:22:13;;;;;;;;;;;9.00;99.90;;;;;;5054290;28;19939;-52
2024/01/26 08:24:39;;;;;;;;;;;9.10;99.90;;;;;;5052900;28;20066;-52
2024/01/26 08:27:05;;;;;;;;;;;8.90;99.90;;;;;;5062888;28;19928;-50
2024/01/26 08:29:31;;;;;;;;;;;9.00;99.90;;;;;;5070512;28;19912;-51
2024/01/26 08:31:57;;;;;;;;;;;9.10;99.90;;;;;;5050358;28;20012;-52
2024/01/26 08:34:22;;;;;;;;;;;9.10;99.90;;;;;;5052294;28;20062;-50
2024/01/26 08:36:48;;;;;;;;;;;9.10;99.90;;;;;;5050688;28;20022;-48
2024/01/26 08:39:14;;;;;;;;;;;9.20;99.90;;;;;;5056088;28;19924;-48
2024/01/26 08:41:40;;;;;;;;;;;9.20;99.90;;;;;;5033049;28;19909;-52
2024/01/26 08:44:05;;;;;;;;;;;9.30;99.90;;;;;;5056492;28;19930;-52
2024/01/26 08:46:31;;;;;;;;;;;9.30;99.90;;;;;;5061416;28;19964;-48
2024/01/26 08:48:56;;;;;;;;;;;9.30;99.90;;;;;;5062016;28;19921;-49
2024/01/26 08:51:23;;;;;;;;;;;9.30;99.90;;;;;;5056845;28;19917;-53
2024/01/26 08:53:48;;;;;;;;;;;9.30;99.90;;;;;;5063739;28;19995;-49
2024/01/26 08:56:15;;;;;;;;;;;9.30;99.90;;;;;;5041205;28;20388;-48
2024/01/26 08:58:41;;;;;;;;;;;9.40;99.90;;;;;;5069984;28;20341;-50
2024/01/26 09:01:07;;;;;;;;;;;9.50;99.90;;;;;;5061836;28;19913;-51
2024/01/26 09:03:32;;;;;;;;;;;9.40;99.90;;;;;;5061581;28;19931;-49
2024/01/26 09:05:58;;;;;;;;;;;9.30;99.90;;;;;;5049062;28;19921;-49
2024/01/26 09:08:23;;;;;;;;;;;9.30;99.90;;;;;;5051129;28;19963;-52
2024/01/26 09:10:49;;;;;;;;;;;9.40;99.90;;;;;;5048211;28;19931;-50
2024/01/26 09:13:14;;;;;;;;;;;9.50;99.90;;;;;;5049514;28;20068;-48
2024/01/26 09:15:40;;;;;;;;;;;9.40;99.90;;;;;;5033811;28;19935;-48
2024/01/26 09:18:05;;;;;;;;;;;9.40;99.90;;;;;;5064830;28;20397;-55
2024/01/26 09:20:31;;;;;;;;;;;9.30;99.90;;;;;;5049337;28;20003;-49
2024/01/26 09:22:56;;;;;;;;;;;9.20;99.90;;;;;;5054864;28;19921;-50
2024/01/26 09:25:22;;;;;;;;;;;9.30;99.90;;;;;;5052334;28;20352;-55
2024/01/26 09:27:48;;;;;;;;;;;9.30;99.90;;;;;;5057445;28;19923;-53
2024/01/26 09:30:14;;;;;;;;;;;9.30;99.90;;;;;;5046907;28;19917;-51
2024/01/26 09:32:39;;;;;;;;;;;9.30;99.90;;;;;;5060116;28;19920;-50
2024/01/26 09:35:06;;;;;;;;;;;9.40;99.90;;;;;;5044810;28;20339;-53
2024/01/26 09:37:31;;;;;;;;;;;9.40;99.90;;;;;;5044943;28;20007;-52
2024/01/26 09:39:57;;;;;;;;;;;9.40;99.90;;;;;;5049485;28;20015;-51
2024/01/26 09:42:25;;;;;;;;;;;9.40;99.90;;;;;;5050984;28;20296;-51
2024/01/26 09:44:51;;;;;;;;;;;9.50;99.90;;;;;;5050813;28;20462;-51
2024/01/26 09:47:19;;;;;;;;;;;9.50;99.90;;;;;;5054017;28;20404;-55
2024/01/26 09:49:51;;;;;;;;;;;9.60;99.90;;;;;;5034043;28;19959;-50
2024/01/26 09:52:17;;;;;;;;;;;9.60;99.90;;;;;;5057403;28;20011;-52
2024/01/26 09:54:43;;;;;;;;;;;9.60;99.90;;;;;;5061697;28;19970;-53
2024/01/26 09:57:09;;;;;;;;;;;9.60;99.90;;;;;;5044856;28;19925;-52
2024/01/26 09:59:35;;;;;;;;;;;9.60;99.90;;;;;;5045554;28;20331;-51
2024/01/26 10:02:00;;;;;;;;;;;9.60;99.90;;;;;;5029110;28;19959;-53
2024/01/26 10:04:26;;;;;;;;;;;9.70;99.90;;;;;;5045468;28;19979;-49
2024/01/26 10:06:51;;;;;;;;;;;9.70;99.90;;;;;;5033018;28;19913;-48
2024/01/26 10:09:17;;;;;;;;;;;9.80;99.90;;;;;;5030584;28;19917;-52
2024/01/26 10:11:43;;;;;;;;;;;9.90;99.90;;;;;;5055931;28;20298;-50
2024/01/26 10:14:08;;;;;;;;;;;9.90;99.90;;;;;;5052382;28;20352;-50
2024/01/26 10:16:34;;;;;;;;;;;9.90;99.90;;;;;;5059703;28;19917;-51
2024/01/26 10:18:59;;;;;;;;;;;9.90;99.90;;;;;;5040578;28;19939;-53
2024/01/26 10:21:25;;;;;;;;;;;10.00;99.90;;;;;;5040540;28;19917;-51
2024/01/26 10:23:50;;;;;;;;;;;10.00;99.90;;;;;;5042714;28;20020;-50
2024/01/26 10:26:16;;;;;;;;;;;10.00;99.90;;;;;;5067767;28;20395;-49
2024/01/26 10:28:43;;;;;;;;;;;9.90;99.90;;;;;;5051368;28;20019;-52
2024/01/26 10:31:08;;;;;;;;;;;10.10;99.90;;;;;;5048054;28;19985;-52
2024/01/26 10:33:36;;;;;;;;;;;10.00;99.90;;;;;;5054273;28;19909;-53
2024/01/26 10:36:02;;;;;;;;;;;10.10;99.90;;;;;;5046451;28;19913;-51
2024/01/26 10:38:31;;;;;;;;;;;10.00;99.90;;;;;;5049079;28;19971;-53
2024/01/26 10:41:03;;;;;;;;;;;10.00;99.90;;;;;;5071060;28;19943;-49
2024/01/26 10:43:29;;;;;;;;;;;10.20;99.90;;;;;;5064081;28;19932;-52
2024/01/26 10:45:55;;;;;;;;;;;10.30;99.90;;;;;;5044404;28;19921;-50
2024/01/26 10:48:21;;;;;;;;;;;10.40;99.90;;;;;;5044651;28;20112;-52
2024/01/26 10:50:47;;;;;;;;;;;10.50;99.90;;;;;;5034110;28;19984;-55
2024/01/26 10:53:13;;;;;;;;;;;10.60;99.90;;;;;;5043360;28;19992;-52
2024/01/26 10:55:39;;;;;;;;;;;10.60;99.90;;;;;;5070025;28;20439;-50
2024/01/26 10:58:05;;;;;;;;;;;10.70;99.90;;;;;;5040642;28;20360;-52
2024/01/26 11:00:31;;;;;;;;;;;10.70;99.90;;;;;;5048360;28;19962;-50
2024/01/26 11:02:56;;;;;;;;;;;10.80;99.90;;;;;;5046977;28;20284;-54
2024/01/26 11:05:22;;;;;;;;;;;11.00;99.90;;;;;;5071863;28;19916;-52
2024/01/26 11:07:47;;;;;;;;;;;11.00;99.90;;;;;;5051768;28;19924;-50
2024/01/26 11:10:31;;;;;;;;;;;11.00;99.90;;;;;;5059374;28;20003;-50
2024/01/26 11:13:01;;;;;;;;;;;11.10;99.90;;;;;;5049263;28;20333;-51
2024/01/26 11:15:26;;;;;;;;;;;11.20;99.90;;;;;;5031591;28;19913;-52
2024/01/26 11:17:52;;;;;;;;;;;11.20;99.90;;;;;;5069802;28;19920;-54
2024/01/26 11:20:37;;;;;;;;;;;11.30;99.90;;;;;;5060645;28;19993;-50
2024/01/26 11:23:06;;;;;;;;;;;11.40;99.90;;;;;;5031805;28;20388;-52
2024/01/26 11:25:36;;;;;;;;;;;11.60;99.90;;;;;;5063634;28;19986;-54
2024/01/26 11:28:02;;;;;;;;;;;11.70;99.90;;;;;;5052235;28;19913;-50
2024/01/26 11:30:27;;;;;;;;;;;11.70;99.90;;;;;;5067301;28;19920;-50
2024/01/26 11:32:53;;;;;;;;;;;11.80;99.90;;;;;;5070711;28;20291;-54
2024/01/26 11:35:21;;;;;;;;;;;11.90;99.90;;;;;;5054678;28;19913;-51
2024/01/26 11:37:49;;;;;;;;;;;11.90;99.90;;;;;;5067888;28;19917;-51
2024/01/26 11:40:16;;;;;;;;;;;11.90;99.90;;;;;;5044791;28;20015;-53
2024/01/26 11:42:42;;;;;;;;;;;11.90;99.90;;;;;;5060403;28;19921;-52
2024/01/26 11:45:08;;;;;;;;;;;11.70;99.90;;;;;;5063697;28;20035;-51
2024/01/26 11:47:40;;;;;;;;;;;11.70;99.90;;;;;;5054272;28;19918;-54
2024/01/26 11:50:06;;;;;;;;;;;11.70;99.90;;;;;;5056750;28;19920;-51
2024/01/26 11:52:34;;;;;;;;;;;11.70;99.90;;;;;;5055307;28;19935;-55
2024/01/26 11:55:00;;;;;;;;;;;11.60;99.90;;;;;;5046321;28;19917;-50
2024/01/26 11:57:25;;;;;;;;;;;11.50;99.90;;;;;;5054270;28;20011;-53
2024/01/26 11:59:51;;;;;;;;;;;11.50;99.90;;;;;;5058524;28;20424;-54
2024/01/26 12:02:16;;;;;;;;;;;11.50;99.90;;;;;;5047696;28;19924;-52
2024/01/26 12:04:45;;;;;;;;;;;11.40;99.90;;;;;;5049497;28;19964;-52
2024/01/26 12:07:13;;;;;;;;;;;11.40;99.90;;;;;;5044300;28;19925;-53
2024/01/26 12:09:39;;;;;;;;;;;11.40;99.90;;;;;;5047956;28;20421;-54
2024/01/26 12:12:07;;;;;;;;;;;11.40;99.90;;;;;;5042775;28;20329;-52
2024/01/26 12:14:34;;;;;;;;;;;11.40;99.90;;;;;;5042985;28;19909;-51
2024/01/26 12:17:00;;;;;;;;;;;11.30;99.90;;;;;;5050591;28;20405;-50
2024/01/26 12:19:26;;;;;;;;;;;11.30;99.90;;;;;;5045132;28;20279;-52
2024/01/26 12:21:51;;;;;;;;;;;11.30;99.90;;;;;;5054703;28;20386;-50
2024/01/26 12:24:16;;;;;;;;;;;11.20;99.90;;;;;;5042834;28;20037;-52
2024/01/26 12:26:42;;;;;;;;;;;11.20;99.90;;;;;;5048444;28;19917;-50
2024/01/26 12:29:08;;;;;;;;;;;11.10;99.90;;;;;;5044832;28;19917;-54
2024/01/26 12:31:34;;;;;;;;;;;11.10;99.90;;;;;;5054201;28;19924;-53
2024/01/26 12:34:01;;;;;;;;;;;11.10;99.90;;;;;;5042813;28;19948;-50
2024/01/26 12:36:31;;;;;;;;;;;11.00;99.90;;;;;;5065281;28;20364;-49
2024/01/26 12:39:00;;;;;;;;;;;10.80;99.90;;;;;;5045733;28;20352;-55
2024/01/26 12:41:28;;;;;;;;;;;10.60;99.90;;;;;;5070316;28;19909;-54
2024/01/26 12:43:55;;;;;;;;;;;10.50;99.90;;;;;;5061940;28;19936;-51
2024/01/26 12:46:24;;;;;;;;;;;10.30;99.90;;;;;;5064036;28;20355;-52
2024/01/26 12:48:49;;;;;;;;;;;10.20;99.90;;;;;;5056626;28;19912;-52
2024/01/26 12:51:15;;;;;;;;;;;10.00;99.90;;;;;;5041120;28;20276;-53
2024/01/26 12:53:40;;;;;;;;;;;10.00;99.90;;;;;;5069970;28;19967;-49
2024/01/26 12:56:06;;;;;;;;;;;9.90;99.90;;;;;;5061463;28;19918;-51
2024/01/26 12:58:31;;;;;;;;;;;9.90;99.90;;;;;;5062143;28;19924;-54
2024/01/26 13:00:57;;;;;;;;;;;9.70;99.90;;;;;;5066956;28;20019;-53
2024/01/26 13:03:24;;;;;;;;;;;9.50;99.90;;;;;;5064816;28;19912;-51
2024/01/26 13:05:51;;;;;;;;;;;9.50;99.90;;;;;;5051070;28;19935;-53
2024/01/26 13:08:17;;;;;;;;;;;9.40;99.90;;;;;;5065275;28;19908;-50
2024/01/26 13:10:43;;;;;;;;;;;9.30;99.90;;;;;;5057748;28;20291;-51
2024/01/26 13:13:08;;;;;;;;;;;9.20;99.90;;;;;;5055973;28;19916;-51
2024/01/26 13:15:34;;;;;;;;;;;9.20;99.90;;;;;;5060720;28;19912;-49
2024/01/26 13:17:59;;;;;;;;;;;9.20;99.90;;;;;;5050220;28;20041;-54
2024/01/26 13:20:25;;;;;;;;;;;9.00;99.90;;;;;;5056814;28;19951;-51
2024/01/26 13:22:50;;;;;;;;;;;9.00;99.90;;;;;;5050969;28;19923;-53
2024/01/26 13:25:16;;;;;;;;;;;8.90;99.90;;;;;;5051422;28;19927;-53
2024/01/26 13:27:42;;;;;;;;;;;8.90;99.90;;;;;;5063194;28;19981;-49
2024/01/26 13:30:07;;;;;;;;;;;9.10;99.90;;;;;;5062689;28;20151;-49
2024/01/26 13:32:33;;;;;;;;;;;9.30;99.90;;;;;;5046011;28;20356;-50
2024/01/26 13:34:58;;;;;;;;;;;9.30;99.90;;;;;;5060237;28;20077;-51
2024/01/26 13:37:24;;;;;;;;;;;9.50;99.90;;;;;;5069093;28;19913;-52
2024/01/26 13:39:49;;;;;;;;;;;9.70;99.90;;;;;;5067634;28;19913;-52
2024/01/26 13:42:15;;;;;;;;;;;9.80;99.90;;;;;;5052176;28;19917;-51
2024/01/26 13:44:43;;;;;;;;;;;10.00;99.90;;;;;;5047410;28;19959;-51
2024/01/26 13:47:08;;;;;;;;;;;10.20;99.90;;;;;;5059964;28;20411;-55
2024/01/26 13:49:34;;;;;;;;;;;10.30;99.90;;;;;;5061800;28;20011;-52
2024/01/26 13:52:00;;;;;;;;;;;10.30;99.90;;;;;;5052747;28;20380;-55
2024/01/26 13:54:25;;;;;;;;;;;10.40;99.90;;;;;;5055842;28;20415;-49
2024/01/26 13:56:54;;;;;;;;;;;10.50;99.90;;;;;;5061351;28;20304;-51
2024/01/26 13:59:20;;;;;;;;;;;10.60;99.90;;;;;;5041433;28;19919;-49
2024/01/26 14:01:45;;;;;;;;;;;10.60;99.90;;;;;;5050374;28;19908;-49
2024/01/26 14:04:11;;;;;;;;;;;10.50;99.90;;;;;;5049835;28;19913;-52
2024/01/26 14:06:36;;;;;;;;;;;10.10;99.90;;;;;;5022470;28;19956;-58
2024/01/26 14:09:03;;;;;;;;;;;9.50;99.90;;;;;;5045756;28;19932;-49
2024/01/26 14:11:28;;;;;;;;;;;8.90;99.90;;;;;;5045678;28;19928;-50
2024/01/26 14:13:54;;;;;;;;;;;8.40;99.90;;;;;;5054083;28;20556;-53
2024/01/26 14:16:19;;;;;;;;;;;8.30;99.90;;;;;;5040576;28;19999;-49
2024/01/26 14:18:45;;;;;;;;;;;8.20;99.90;;;;;;5068818;28;20293;-51
2024/01/26 14:21:10;;;;;;;;;;;8.20;99.90;;;;;;5056190;28;20396;-55